createdAt,value
2022-11-18T00:03:34.421Z,4.50
2022-11-18T00:08:27.896Z,4.90
2022-11-18T00:13:39.797Z,5.10
2022-11-18T00:16:08.344Z,5.10
2022-11-18T00:18:35.208Z,5.70
2022-11-18T00:23:29.536Z,4.80
2022-11-18T00:25:56.462Z,5.20
2022-11-18T00:28:23.388Z,5.10
2022-11-18T00:30:50.146Z,5.30
2022-11-18T00:33:16.846Z,5.50
2022-11-18T00:35:43.524Z,5.60
2022-11-18T00:38:10.257Z,5.10
2022-11-18T00:40:36.937Z,5.60
2022-11-18T00:43:03.649Z,5.40
2022-11-18T00:45:30.426Z,5.30
2022-11-18T00:47:57.162Z,5.50
2022-11-18T00:50:24.788Z,5.10
2022-11-18T00:52:51.492Z,5.50
2022-11-18T00:55:18.274Z,5.60
2022-11-18T00:57:45.025Z,6.00
2022-11-18T01:00:12.045Z,5.20
2022-11-18T01:02:38.820Z,5.60
2022-11-18T01:07:39.679Z,4.70
2022-11-18T01:12:54.454Z,4.40
2022-11-18T01:15:21.412Z,5.40
2022-11-18T01:17:48.126Z,5.80
2022-11-18T01:20:15.842Z,6.30
2022-11-18T01:22:42.571Z,6.80
2022-11-18T01:25:09.476Z,6.40
2022-11-18T01:27:36.159Z,6.10
2022-11-18T01:30:03.070Z,6.80
2022-11-18T01:34:56.434Z,5.60
2022-11-18T01:37:23.228Z,5.60
2022-11-18T01:39:49.992Z,6.50
2022-11-18T01:45:05.295Z,6.30
2022-11-18T01:47:35.829Z,6.10
2022-11-18T01:50:02.640Z,7.30
2022-11-18T01:54:58.289Z,6.00
2022-11-18T01:57:27.623Z,6.40
2022-11-18T01:59:55.304Z,6.10
2022-11-18T02:02:22.855Z,6.70
2022-11-18T02:05:54.499Z,6.40
2022-11-18T02:10:48.190Z,6.00
2022-11-18T02:13:14.965Z,6.10
2022-11-18T02:15:44.702Z,5.70
2022-11-18T02:18:23.864Z,6.90
2022-11-18T02:20:51.458Z,7.30
2022-11-18T02:23:42.645Z,6.60
2022-11-18T02:26:21.713Z,6.50
2022-11-18T02:28:57.659Z,6.80
2022-11-18T02:31:27.999Z,6.40
2022-11-18T02:33:58.987Z,6.50
2022-11-18T02:36:40.003Z,7.00
2022-11-18T02:39:13.655Z,6.40
2022-11-18T02:41:40.920Z,6.90
2022-11-18T02:44:11.046Z,5.80
2022-11-18T02:46:38.795Z,6.40
2022-11-18T02:49:10.861Z,5.20
2022-11-18T02:51:37.629Z,6.10
2022-11-18T02:54:06.734Z,5.60
2022-11-18T02:56:34.250Z,6.10
2022-11-18T02:59:01.141Z,6.20
2022-11-18T03:03:56.190Z,5.30
2022-11-18T03:06:33.045Z,6.00
2022-11-18T03:09:09.117Z,6.30
2022-11-18T03:12:14.586Z,5.90
2022-11-18T03:14:47.324Z,6.90
2022-11-18T03:17:20.483Z,6.20
2022-11-18T03:19:56.086Z,5.90
2022-11-18T03:22:52.275Z,5.70
2022-11-18T03:25:19.049Z,6.40
2022-11-18T03:30:23.861Z,5.30
2022-11-18T16:27:42.608Z,21.90
2022-11-18T16:32:56.366Z,15.50
2022-11-18T16:35:23.161Z,16.20
2022-11-18T16:37:49.913Z,13.90
2022-11-18T16:40:17.148Z,17.10
2022-11-18T16:42:43.927Z,19.00
2022-11-18T16:45:10.966Z,13.90
2022-11-18T16:47:38.490Z,13.30
2022-11-18T16:50:05.506Z,20.10
2022-11-18T16:52:32.228Z,15.60
2022-11-18T16:54:58.964Z,15.60
2022-11-18T16:57:25.756Z,14.80
2022-11-18T16:59:52.493Z,13.90
2022-11-18T17:02:24.975Z,36.20
2022-11-18T17:04:51.748Z,17.80
2022-11-18T17:07:18.523Z,14.10
2022-11-18T17:09:45.410Z,15.40
2022-11-18T17:14:40.281Z,24.20
2022-11-18T17:17:07.224Z,17.40
2022-11-18T17:19:34.026Z,21.10
2022-11-18T17:22:00.717Z,17.00
2022-11-18T17:24:27.468Z,15.00
2022-11-18T17:26:54.526Z,17.60
2022-11-18T17:29:21.628Z,20.70
2022-11-18T17:31:48.760Z,22.20
2022-11-18T17:36:43.253Z,17.30
2022-11-18T17:39:11.021Z,29.90
2022-11-18T17:41:56.802Z,23.80
2022-11-18T17:44:24.561Z,26.20
2022-11-18T17:46:51.609Z,22.10
2022-11-18T17:49:18.532Z,19.40
2022-11-18T17:54:14.996Z,19.70
2022-11-18T17:56:41.886Z,23.60
2022-11-18T18:01:36.166Z,22.30
2022-11-18T18:04:03.112Z,22.70
2022-11-18T18:08:57.431Z,28.60
2022-11-18T18:11:24.414Z,31.70
2022-11-18T18:14:09.899Z,41.00
2022-11-18T18:16:36.762Z,24.00
2022-11-18T18:21:31.787Z,21.70
2022-11-18T18:23:58.620Z,24.10
2022-11-18T18:28:59.412Z,24.00
2022-11-18T18:31:26.738Z,20.50
2022-11-18T18:33:53.469Z,25.90
2022-11-18T18:36:21.003Z,22.50
2022-11-18T18:38:47.843Z,24.20
2022-11-18T18:43:42.105Z,23.60
2022-11-18T18:46:36.226Z,31.20
2022-11-18T18:49:03.075Z,26.00
2022-11-18T18:53:58.420Z,18.30
2022-11-18T18:56:25.467Z,20.00
2022-11-18T18:58:52.151Z,18.40
2022-11-18T19:01:19.402Z,16.70
2022-11-18T19:03:46.308Z,18.50
2022-11-18T19:09:03.525Z,20.40
2022-11-18T19:11:49.123Z,21.30
2022-11-18T19:14:18.124Z,20.80
2022-11-18T19:16:45.460Z,13.20
2022-11-18T19:19:17.020Z,14.80
2022-11-18T19:21:45.258Z,15.60
2022-11-18T19:24:34.767Z,12.50
2022-11-18T19:26:59.094Z,12.60
2022-11-18T19:31:55.431Z,10.90
2022-11-18T19:34:22.190Z,10.90
2022-11-18T19:39:16.047Z,12.20
2022-11-18T19:41:43.021Z,11.30
2022-11-18T19:44:09.867Z,12.50
2022-11-18T19:49:04.285Z,10.90
2022-11-18T19:51:31.013Z,13.30
2022-11-18T19:53:59.776Z,11.30
2022-11-18T19:56:26.800Z,28.50
2022-11-18T20:03:53.681Z,11.40
2022-11-18T20:06:22.606Z,12.30
2022-11-18T20:08:49.473Z,40.80
2022-11-18T20:13:45.301Z,14.20
2022-11-18T20:16:12.816Z,11.70
2022-11-18T20:18:40.353Z,12.20
2022-11-18T20:21:09.333Z,13.50
2022-11-18T20:23:36.564Z,12.10
2022-11-18T20:26:09.874Z,12.10
2022-11-18T20:28:38.669Z,13.70
2022-11-18T20:31:06.306Z,12.20
2022-11-18T20:33:37.029Z,11.00
2022-11-18T20:36:11.560Z,13.40
2022-11-18T20:38:38.753Z,12.90
2022-11-18T20:41:07.011Z,13.20
2022-11-18T20:43:34.215Z,12.70
2022-11-18T20:46:01.135Z,13.20
2022-11-18T20:48:27.976Z,11.60
2022-11-18T20:53:25.392Z,12.20
2022-11-18T20:55:52.159Z,12.80
2022-11-18T20:58:18.970Z,11.40
2022-11-18T21:03:13.137Z,12.80
2022-11-18T21:05:40.707Z,14.80
2022-11-18T21:08:10.593Z,12.20
2022-11-18T21:10:37.405Z,13.90
2022-11-18T21:13:22.934Z,14.40
2022-11-18T21:15:49.715Z,14.50
2022-11-18T21:18:16.420Z,13.60
2022-11-18T21:21:01.585Z,16.20
2022-11-18T21:23:28.339Z,21.20
2022-11-18T21:25:55.214Z,16.00
2022-11-18T21:30:48.708Z,13.30
2022-11-18T21:35:42.102Z,13.30
2022-11-18T21:38:08.928Z,13.90
2022-11-18T21:43:02.406Z,15.20
2022-11-18T21:47:55.924Z,13.90
2022-11-18T21:52:49.679Z,14.40
2022-11-18T21:55:16.731Z,15.60
2022-11-18T21:57:43.492Z,13.60
2022-11-18T22:00:11.053Z,17.40
2022-11-18T22:02:38.506Z,13.60
2022-11-18T22:07:34.157Z,14.20
2022-11-18T22:10:00.952Z,14.40
2022-11-18T22:12:27.713Z,15.00
2022-11-18T22:14:54.428Z,14.50
2022-11-18T22:17:21.104Z,15.80
2022-11-18T22:19:47.811Z,14.40
2022-11-18T22:22:14.647Z,15.80
2022-11-18T22:24:41.414Z,16.00
2022-11-18T22:27:11.554Z,15.10
2022-11-18T22:29:38.520Z,15.80
2022-11-18T22:32:05.296Z,15.30
2022-11-18T22:34:32.021Z,16.60
2022-11-18T22:36:58.709Z,15.70
2022-11-18T22:39:25.538Z,18.00
2022-11-18T22:44:37.855Z,16.50
2022-11-18T22:47:04.602Z,16.80
2022-11-18T22:49:31.371Z,17.50
2022-11-18T22:54:40.712Z,16.00
2022-11-18T22:57:07.890Z,16.40
2022-11-18T22:59:34.625Z,17.70
2022-11-18T23:02:01.933Z,17.20
2022-11-18T23:04:28.712Z,16.80
2022-11-18T23:06:55.460Z,16.40
2022-11-18T23:12:08.107Z,16.00
2022-11-18T23:14:34.855Z,14.50
2022-11-18T23:19:28.312Z,14.50
2022-11-18T23:21:55.043Z,14.80
2022-11-18T23:24:22.039Z,14.40
2022-11-18T23:26:48.812Z,14.40
2022-11-18T23:31:43.713Z,14.70
2022-11-18T23:34:11.982Z,14.70
2022-11-18T23:36:39.004Z,14.50
2022-11-18T23:39:06.053Z,13.80
2022-11-18T23:43:59.584Z,13.40
2022-11-18T23:51:22.045Z,13.60
2022-11-18T23:53:55.019Z,12.80
2022-11-18T23:56:23.175Z,13.10
2022-11-18T23:58:51.295Z,11.40
